createdAt,value
2022-08-11T00:01:25.375Z,3.00
2022-08-11T00:04:00.580Z,3.08
2022-08-11T00:06:36.178Z,3.10
2022-08-11T00:09:07.032Z,3.30
2022-08-11T00:12:00.281Z,3.42
2022-08-11T00:14:37.220Z,3.50
2022-08-11T00:17:14.029Z,3.33
2022-08-11T00:20:12.252Z,3.22
2022-08-11T00:22:34.218Z,3.40
2022-08-11T00:25:10.337Z,3.80
2022-08-11T00:27:40.566Z,3.28
2022-08-11T00:30:09.437Z,3.38
2022-08-11T00:32:39.030Z,3.58
2022-08-11T00:35:56.229Z,3.05
2022-08-11T00:37:57.040Z,3.28
2022-08-11T00:40:34.348Z,3.60
2022-08-11T00:43:23.924Z,4.03
2022-08-11T00:46:25.829Z,4.07
2022-08-11T00:49:21.363Z,3.50
2022-08-11T00:55:56.048Z,4.78
2022-08-11T00:58:26.445Z,4.10
2022-08-11T01:01:13.872Z,3.53
2022-08-11T01:03:54.597Z,4.25
2022-08-11T01:06:22.801Z,3.90
2022-08-11T01:09:31.595Z,4.45
2022-08-11T01:12:29.545Z,4.47
2022-08-11T01:15:34.170Z,4.72
2022-08-11T01:18:28.454Z,5.35
2022-08-11T01:21:23.607Z,4.43
2022-08-11T01:24:15.384Z,4.55
2022-08-11T01:26:54.368Z,4.60
2022-08-11T01:29:52.418Z,4.63
2022-08-11T01:32:56.871Z,4.57
2022-08-11T01:36:00.096Z,5.00
2022-08-11T01:38:48.445Z,4.65
2022-08-11T01:42:00.940Z,4.78
2022-08-11T01:44:52.421Z,4.82
2022-08-11T01:47:54.413Z,4.80
2022-08-11T01:50:31.245Z,4.80
2022-08-11T01:53:18.199Z,4.70
2022-08-11T01:56:06.398Z,4.82
2022-08-11T01:58:44.582Z,5.47
2022-08-11T02:01:32.408Z,5.13
2022-08-11T02:04:29.547Z,5.13
2022-08-11T02:07:33.142Z,5.43
2022-08-11T02:10:26.827Z,5.45
2022-08-11T02:13:36.680Z,4.47
2022-08-11T02:16:08.591Z,5.72
2022-08-11T02:18:59.007Z,5.43
2022-08-11T02:21:58.048Z,5.72
2022-08-11T02:24:33.121Z,5.65
2022-08-11T02:27:14.882Z,5.18
2022-08-11T02:29:49.581Z,5.90
2022-08-11T02:32:34.877Z,6.00
2022-08-11T02:35:23.372Z,5.13
2022-08-11T02:38:12.185Z,6.13
2022-08-11T02:41:34.964Z,6.28
2022-08-11T02:44:34.658Z,5.82
2022-08-11T02:47:25.208Z,6.25
2022-08-11T02:50:17.945Z,5.90
2022-08-11T02:53:18.140Z,6.35
2022-08-11T02:55:57.129Z,5.55
2022-08-11T02:59:13.846Z,6.75
2022-08-11T03:02:02.447Z,6.63
2022-08-11T03:04:57.469Z,6.72
2022-08-11T03:07:52.344Z,6.25
2022-08-11T03:10:23.567Z,6.53
2022-08-11T03:13:33.678Z,6.70
2022-08-11T03:17:00.199Z,6.95
2022-08-11T03:20:04.649Z,7.10
2022-08-11T03:23:19.849Z,6.47
2022-08-11T03:26:24.202Z,7.10
2022-08-11T03:29:03.123Z,7.38
2022-08-11T03:31:46.799Z,7.72
2022-08-11T03:34:25.213Z,7.10
2022-08-11T03:37:16.170Z,7.35
2022-08-11T03:40:38.585Z,6.68
2022-08-11T03:43:30.933Z,6.85
2022-08-11T03:46:10.466Z,6.90
2022-08-11T03:48:54.726Z,7.25
2022-08-11T03:51:51.833Z,7.85
2022-08-11T03:54:37.976Z,6.70
2022-08-11T03:57:29.696Z,7.40
2022-08-11T04:00:11.728Z,7.90
2022-08-11T04:03:09.680Z,7.50
2022-08-11T04:05:45.626Z,7.32
2022-08-11T04:08:33.852Z,7.47
2022-08-11T04:11:19.470Z,8.40
2022-08-11T04:14:42.851Z,7.85
2022-08-11T04:17:19.790Z,7.95
2022-08-11T04:20:22.876Z,7.22
2022-08-11T04:22:52.498Z,8.35
2022-08-11T04:25:58.279Z,7.90
2022-08-11T04:28:50.894Z,7.55
2022-08-11T04:31:51.907Z,7.78
2022-08-11T04:34:28.573Z,7.38
2022-08-11T04:37:34.387Z,8.05
2022-08-11T04:40:23.442Z,7.63
2022-08-11T04:43:21.077Z,7.50
2022-08-11T04:46:25.509Z,7.80
2022-08-11T04:49:37.655Z,6.93
2022-08-11T04:52:42.239Z,7.25
2022-08-11T04:56:00.505Z,7.63
2022-08-11T04:59:15.200Z,7.60
2022-08-11T05:02:04.883Z,7.97
2022-08-11T05:05:31.935Z,6.80
2022-08-11T05:08:27.897Z,7.85
2022-08-11T05:11:11.649Z,8.15
2022-08-11T05:14:06.332Z,7.78
2022-08-11T05:17:09.378Z,7.15
2022-08-11T05:19:56.166Z,7.40
2022-08-11T05:22:47.361Z,7.97
2022-08-11T05:26:43.827Z,7.40
2022-08-11T05:29:00.157Z,7.55
2022-08-11T05:31:58.712Z,7.40
2022-08-11T05:34:56.852Z,7.25
2022-08-11T05:37:29.788Z,7.68
2022-08-11T05:43:16.359Z,7.15
2022-08-11T05:46:05.432Z,7.13
2022-08-11T05:48:55.778Z,6.95
2022-08-11T05:51:54.778Z,6.97
2022-08-11T05:54:42.531Z,6.72
2022-08-11T05:57:45.450Z,7.32
2022-08-11T06:00:10.445Z,6.85
2022-08-11T06:02:46.697Z,7.05
2022-08-11T06:05:14.318Z,6.93
2022-08-11T06:07:49.327Z,7.00
2022-08-11T06:10:33.776Z,6.28
2022-08-11T06:13:01.700Z,6.85
2022-08-11T06:15:31.004Z,6.95
2022-08-11T06:18:01.292Z,6.40
2022-08-11T06:20:32.740Z,6.57
2022-08-11T06:23:03.780Z,6.63
2022-08-11T06:25:32.634Z,6.60
2022-08-11T06:28:00.377Z,6.68
2022-08-11T06:30:40.406Z,7.22
2022-08-11T06:33:13.572Z,7.05
2022-08-11T06:36:17.440Z,6.50
2022-08-11T06:38:50.632Z,6.28
2022-08-11T06:41:32.041Z,6.00
2022-08-11T06:44:14.004Z,6.22
2022-08-11T06:46:43.266Z,7.05
2022-08-11T06:49:31.854Z,6.60
2022-08-11T06:52:34.903Z,5.35
2022-08-11T06:55:55.941Z,6.63
2022-08-11T06:58:41.564Z,6.07
2022-08-11T07:01:17.074Z,6.07
2022-08-11T07:03:49.156Z,6.88
2022-08-11T07:06:41.507Z,5.20
2022-08-11T07:10:27.276Z,5.57
2022-08-11T07:13:45.644Z,5.90
2022-08-11T07:16:12.599Z,3.92
2022-08-11T07:19:00.899Z,4.75
2022-08-11T07:22:02.867Z,5.18
2022-08-11T07:25:03.583Z,4.40
2022-08-11T07:28:03.312Z,3.60
2022-08-11T07:30:32.707Z,4.20
2022-08-11T07:33:02.675Z,3.95
2022-08-11T07:35:43.892Z,4.28
2022-08-11T07:38:25.210Z,4.25
2022-08-11T07:40:52.692Z,4.27
2022-08-11T07:43:20.018Z,3.65
2022-08-11T07:46:06.510Z,5.55
2022-08-11T07:48:53.430Z,3.08
2022-08-11T07:51:39.169Z,2.50
2022-08-11T07:54:14.499Z,1.95
2022-08-11T07:56:55.210Z,2.28
2022-08-11T08:00:03.740Z,2.00
2022-08-11T08:02:51.105Z,1.42
2022-08-11T08:05:40.288Z,1.50
2022-08-11T08:08:27.832Z,2.03
2022-08-11T08:11:16.234Z,1.40
2022-08-11T08:14:01.970Z,1.52
2022-08-11T08:16:49.664Z,1.55
2022-08-11T08:19:18.974Z,1.27
2022-08-11T08:21:47.189Z,1.20
2022-08-11T08:24:15.273Z,1.75
2022-08-11T08:27:00.699Z,1.00
2022-08-11T08:29:53.035Z,1.90
2022-08-11T08:32:21.773Z,1.02
2022-08-11T08:34:52.672Z,1.30
2022-08-11T08:37:46.664Z,0.90
2022-08-11T08:40:10.205Z,1.10
2022-08-11T08:42:54.232Z,1.20
2022-08-11T08:45:25.591Z,1.33
2022-08-11T08:47:59.242Z,1.27
2022-08-11T08:50:50.374Z,1.63
2022-08-11T08:53:31.998Z,0.80
2022-08-11T08:56:01.213Z,1.05
2022-08-11T08:58:29.606Z,0.80
2022-08-11T09:00:59.465Z,0.63
2022-08-11T09:04:07.077Z,0.90
2022-08-11T09:06:17.396Z,1.00
2022-08-11T09:08:46.477Z,0.80
2022-08-11T09:11:39.597Z,1.00
2022-08-11T09:14:09.358Z,0.93
2022-08-11T09:16:40.219Z,0.85
2022-08-11T09:19:08.660Z,0.98
2022-08-11T09:21:49.545Z,0.80
2022-08-11T11:25:20.301Z,0.63
2022-08-11T11:28:10.263Z,0.90
2022-08-11T11:30:48.364Z,0.95
2022-08-11T11:34:06.734Z,0.77
2022-08-11T11:36:39.675Z,0.63
2022-08-11T11:39:08.005Z,0.63
2022-08-11T11:41:35.976Z,0.80
2022-08-11T11:44:04.296Z,0.68
2022-08-11T11:46:38.845Z,0.70
2022-08-11T11:49:13.959Z,0.80
2022-08-11T11:51:46.004Z,0.75
2022-08-11T11:54:17.656Z,0.80
2022-08-11T11:56:45.478Z,0.70
2022-08-11T11:59:32.583Z,0.75
2022-08-11T12:02:01.006Z,0.82
2022-08-11T12:04:43.545Z,0.90
2022-08-11T12:07:30.842Z,0.60
2022-08-11T12:09:59.023Z,0.68
2022-08-11T12:12:45.026Z,0.60
2022-08-11T12:15:12.964Z,0.70
2022-08-11T12:17:40.523Z,0.70
2022-08-11T12:20:31.515Z,0.50
2022-08-11T12:23:15.318Z,0.52
2022-08-11T12:26:25.851Z,0.80
2022-08-11T12:28:50.524Z,0.93
2022-08-11T12:31:17.908Z,0.90
2022-08-11T12:33:45.357Z,0.68
2022-08-11T12:36:16.400Z,0.80
2022-08-11T12:38:48.573Z,0.90
2022-08-11T12:41:39.435Z,0.50
2022-08-11T12:44:29.556Z,0.90
2022-08-11T12:46:59.664Z,0.55
2022-08-11T12:49:48.427Z,1.02
2022-08-11T12:52:22.322Z,0.82
2022-08-11T12:54:52.496Z,0.80
2022-08-11T12:57:44.512Z,0.77
2022-08-11T13:00:32.725Z,0.65
2022-08-11T13:03:19.020Z,0.43
2022-08-11T13:05:48.237Z,1.02
2022-08-11T13:08:16.705Z,0.65
2022-08-11T13:11:03.692Z,1.23
2022-08-11T13:13:54.031Z,0.60
2022-08-11T13:16:20.625Z,0.82
2022-08-11T13:18:48.343Z,0.70
2022-08-11T13:21:19.973Z,0.80
2022-08-11T13:24:01.143Z,0.45
2022-08-11T13:26:43.522Z,0.73
2022-08-11T13:29:24.517Z,0.50
2022-08-11T13:31:56.547Z,0.52
2022-08-11T13:34:25.543Z,0.50
2022-08-11T13:36:55.316Z,0.50
2022-08-11T13:39:26.217Z,0.40
2022-08-11T13:41:59.630Z,0.60
2022-08-11T13:44:33.345Z,0.45
2022-08-11T13:47:04.312Z,0.50
2022-08-11T13:49:34.937Z,1.17
2022-08-11T13:52:09.694Z,0.70
2022-08-11T13:54:39.130Z,0.70
2022-08-11T13:57:13.642Z,0.50
2022-08-11T14:00:09.622Z,0.40
2022-08-11T14:02:44.269Z,0.50
2022-08-11T14:05:19.901Z,0.70
2022-08-11T14:07:52.316Z,0.40
2022-08-11T14:10:22.639Z,0.50
2022-08-11T14:13:19.777Z,0.82
2022-08-11T14:15:49.959Z,0.70
2022-08-11T14:18:25.846Z,0.60
2022-08-11T14:21:14.441Z,0.75
2022-08-11T14:23:46.723Z,0.88
2022-08-11T14:26:28.919Z,0.88
2022-08-11T14:29:02.944Z,0.90
2022-08-11T14:31:32.118Z,0.50
2022-08-11T14:34:02.888Z,0.45
2022-08-11T14:36:39.156Z,0.50
2022-08-11T14:39:17.164Z,0.55
2022-08-11T14:42:14.584Z,0.70
2022-08-11T14:45:03.790Z,0.50
2022-08-11T14:47:37.058Z,0.55
2022-08-11T14:50:10.835Z,0.90
2022-08-11T14:52:59.157Z,1.05
2022-08-11T14:55:47.512Z,0.90
2022-08-11T14:58:20.924Z,0.93
2022-08-11T15:00:52.620Z,0.55
2022-08-11T15:03:22.177Z,1.42
2022-08-11T15:06:02.139Z,0.80
2022-08-11T15:08:54.560Z,0.77
2022-08-11T15:11:47.338Z,0.73
2022-08-11T15:14:34.838Z,0.77
2022-08-11T15:17:08.538Z,0.43
2022-08-11T15:19:41.070Z,0.70
2022-08-11T15:22:28.693Z,0.80
2022-08-11T15:24:58.132Z,0.70
2022-08-11T15:27:44.929Z,1.15
2022-08-11T15:30:33.188Z,0.65
2022-08-11T15:33:24.491Z,0.60
2022-08-11T15:36:11.487Z,0.82
2022-08-11T15:38:49.326Z,0.77
2022-08-11T15:41:45.520Z,0.82
2022-08-11T15:45:03.068Z,1.17
2022-08-11T15:47:38.941Z,0.70
2022-08-11T15:50:14.106Z,0.50
2022-08-11T15:52:56.121Z,0.70
2022-08-11T15:55:24.581Z,0.60
2022-08-11T15:58:13.569Z,0.50
2022-08-11T16:01:08.690Z,0.77
2022-08-11T16:04:08.175Z,1.17
2022-08-11T16:06:47.486Z,0.80
2022-08-11T16:09:19.133Z,0.80
2022-08-11T16:11:49.076Z,0.73
2022-08-11T16:14:36.207Z,0.80
2022-08-11T16:17:05.926Z,1.10
2022-08-11T16:19:36.641Z,0.70
2022-08-11T16:22:10.355Z,1.00
2022-08-11T16:27:03.823Z,0.82
2022-08-11T16:27:34.877Z,0.95
2022-08-11T16:30:02.605Z,1.00
2022-08-11T16:32:31.576Z,0.70
2022-08-11T16:35:21.115Z,0.95
2022-08-11T16:38:07.884Z,1.17
2022-08-11T16:40:35.415Z,0.73
2022-08-11T16:43:24.161Z,0.82
2022-08-11T16:46:11.659Z,1.20
2022-08-11T16:48:43.115Z,1.02
2022-08-11T16:51:12.547Z,1.13
2022-08-11T16:53:50.124Z,1.13
2022-08-11T16:56:32.846Z,1.13
2022-08-11T16:59:15.913Z,0.98
2022-08-11T17:01:56.133Z,0.98
2022-08-11T17:05:06.173Z,1.20
2022-08-11T17:07:52.489Z,0.90
2022-08-11T17:11:01.514Z,1.02
2022-08-11T17:13:46.778Z,1.10
2022-08-11T17:16:19.908Z,1.20
2022-08-11T17:19:14.305Z,0.95
2022-08-11T17:22:05.326Z,1.02
2022-08-11T17:24:35.555Z,1.17
2022-08-11T17:27:05.726Z,1.20
2022-08-11T17:29:53.593Z,1.20
2022-08-11T17:33:02.369Z,3.72
2022-08-11T17:35:37.900Z,1.50
2022-08-11T17:38:18.145Z,1.20
2022-08-11T17:41:22.738Z,1.70
2022-08-11T17:44:11.021Z,1.90
2022-08-11T17:47:03.587Z,0.98
2022-08-11T17:49:37.368Z,1.30
2022-08-11T17:52:25.096Z,1.05
2022-08-11T17:55:13.388Z,1.40
2022-08-11T17:58:13.998Z,1.02
2022-08-11T18:00:41.739Z,0.95
2022-08-11T18:03:28.276Z,1.27
2022-08-11T18:05:57.259Z,1.23
2022-08-11T18:08:43.318Z,1.85
2022-08-11T18:12:11.239Z,1.88
2022-08-11T18:14:38.332Z,1.17
2022-08-11T18:17:24.464Z,2.80
2022-08-11T18:20:09.852Z,1.30
2022-08-11T18:22:59.740Z,1.58
2022-08-11T18:25:57.188Z,1.63
2022-08-11T18:28:51.925Z,2.40
2022-08-11T18:31:40.230Z,2.03
2022-08-11T18:34:29.119Z,2.55
2022-08-11T18:37:27.415Z,3.17
2022-08-11T18:40:24.174Z,6.13
2022-08-11T18:43:11.593Z,5.88
2022-08-11T18:46:06.288Z,3.53
2022-08-11T18:48:55.673Z,3.15
2022-08-11T18:51:44.126Z,4.07
2022-08-11T18:54:32.361Z,3.38
2022-08-11T18:57:21.920Z,3.13
2022-08-11T19:00:12.526Z,3.47
2022-08-11T19:02:59.180Z,1.70
2022-08-11T19:06:31.773Z,1.60
2022-08-11T19:08:58.669Z,1.63
2022-08-11T19:11:45.657Z,2.42
2022-08-11T19:14:32.698Z,2.33
2022-08-11T19:17:42.963Z,3.03
2022-08-11T19:20:30.515Z,2.03
2022-08-11T19:23:16.880Z,2.30
2022-08-11T19:26:04.128Z,2.20
2022-08-11T19:28:51.268Z,1.90
2022-08-11T19:31:42.309Z,2.10
2022-08-11T19:34:35.293Z,2.30
2022-08-11T19:37:24.595Z,1.80
2022-08-11T19:40:12.792Z,2.00
2022-08-11T19:43:00.554Z,1.77
2022-08-11T19:45:50.548Z,1.45
2022-08-11T19:48:43.144Z,1.50
2022-08-11T19:51:30.036Z,1.98
2022-08-11T19:54:16.279Z,4.95
2022-08-11T19:57:02.887Z,3.70
2022-08-11T19:59:50.470Z,2.60
2022-08-11T20:02:36.737Z,2.45
2022-08-11T20:05:24.367Z,2.30
2022-08-11T20:08:14.836Z,1.63
2022-08-11T20:11:01.079Z,1.65
2022-08-11T20:13:48.079Z,1.23
2022-08-11T20:16:38.115Z,2.53
2022-08-11T20:19:55.900Z,3.10
2022-08-11T20:22:35.297Z,1.77
2022-08-11T20:25:24.571Z,2.05
2022-08-11T20:28:11.871Z,2.08
2022-08-11T20:30:59.346Z,2.88
2022-08-11T20:33:45.152Z,1.73
2022-08-11T20:36:34.656Z,2.17
2022-08-11T20:39:23.887Z,1.92
2022-08-11T20:42:11.205Z,1.60
2022-08-11T20:44:59.121Z,1.65
2022-08-11T20:47:59.355Z,1.67
2022-08-11T20:50:47.618Z,2.13
2022-08-11T20:53:39.219Z,4.32
2022-08-11T20:56:28.725Z,5.35
2022-08-11T20:59:18.822Z,5.32
2022-08-11T21:02:09.780Z,3.75
2022-08-11T21:05:19.467Z,4.85
2022-08-11T21:08:13.279Z,4.88
2022-08-11T21:11:01.157Z,3.35
2022-08-11T21:13:52.829Z,1.83
2022-08-11T21:16:48.947Z,1.63
2022-08-11T21:20:01.779Z,1.67
2022-08-11T21:23:05.283Z,1.75
2022-08-11T21:26:04.486Z,2.03
2022-08-11T21:28:52.277Z,2.90
2022-08-11T21:31:39.645Z,2.83
2022-08-11T21:34:26.993Z,3.50
2022-08-11T21:37:12.992Z,3.15
2022-08-11T21:40:00.799Z,4.32
2022-08-11T21:42:46.716Z,4.35
2022-08-11T21:45:33.626Z,4.60
2022-08-11T21:48:19.877Z,2.70
2022-08-11T21:51:05.196Z,2.50
2022-08-11T21:53:52.179Z,2.83
2022-08-11T21:56:37.939Z,2.20
2022-08-11T21:59:24.597Z,2.17
2022-08-11T22:02:12.873Z,2.50
2022-08-11T22:05:00.430Z,2.50
2022-08-11T22:07:46.950Z,2.35
2022-08-11T22:10:42.458Z,2.55
2022-08-11T22:13:30.751Z,3.08
2022-08-11T22:16:18.154Z,2.58
2022-08-11T22:19:06.073Z,2.25
2022-08-11T22:22:01.835Z,2.50
2022-08-11T22:24:51.444Z,3.20
2022-08-11T22:27:37.675Z,3.20
2022-08-11T22:30:28.941Z,4.35
2022-08-11T22:33:16.546Z,2.72
2022-08-11T22:36:04.161Z,3.28
2022-08-11T22:38:51.908Z,3.00
2022-08-11T22:41:37.663Z,3.20
2022-08-11T22:44:23.715Z,3.45
2022-08-11T22:47:12.106Z,2.53
2022-08-11T22:49:58.724Z,2.65
2022-08-11T22:52:46.979Z,2.53
2022-08-11T22:55:33.899Z,2.40
2022-08-11T22:58:21.153Z,2.80
2022-08-11T23:01:08.138Z,2.92
2022-08-11T23:03:55.107Z,2.72
2022-08-11T23:06:41.122Z,2.30
2022-08-11T23:09:27.941Z,2.95
2022-08-11T23:12:13.710Z,2.88
2022-08-11T23:14:59.977Z,2.38
2022-08-11T23:17:46.408Z,2.28
2022-08-11T23:36:35.747Z,2.58
2022-08-11T23:39:21.500Z,2.67
2022-08-11T23:42:07.155Z,2.40
2022-08-11T23:44:52.606Z,2.70
2022-08-11T23:47:50.824Z,3.00
2022-08-11T23:50:37.675Z,2.63
2022-08-11T23:53:23.593Z,2.97
2022-08-11T23:56:09.602Z,2.95
2022-08-11T23:58:55.938Z,3.15
